Latest Weather Observations for Oenpelli Airport

IDD60801

Issued at 1:31 pm CST Monday 26 January 2015 (issued every 30 minutes, with the page automatically refreshed every 10 minutes)

About weather observations | Map of weather stations | Latest weather observations for NT | Other Formats
Station Details ID: 014310 Name: OENPELLI AIRPORT Lat: -12.33 Lon: 133.01 Height: 7.5 m
Data from the previous 72 hours. | See also: Recent months for locations in Northern Territory
Date/Time
CST
Temp
°C
App
Temp
°C
Dew
Point
Rel
Hum
%
Delta-T
°C
Wind Press
QNH
hPa
Press
MSL
hPa
Rain
since 9 am
mm
Dir
 
Spd
km/h
Gust
km/h
Spd
kts
Gust
kts
26/01:30pm 30.3 - - - - SSW 13 32 7 17 1006.7 1006.6 0.2
26/01:00pm 32.2 - - - - WSW 9 15 5 8 1007.1 1007.0 0.2
26/12:30pm 31.1 - - - - SW 7 13 4 7 1007.6 1007.5 0.2
26/12:00pm 31.5 - - - - WSW 7 17 4 9 1008.3 1008.2 0.2
26/11:30am 31.2 - - - - SW 9 17 5 9 1008.7 1008.6 0.2
26/11:00am 31.2 - - - - SW 9 15 5 8 1009.3 1009.2 0.2
26/10:30am 30.3 - - - - WSW 11 17 6 9 1009.4 1009.3 0.2
26/10:00am 29.3 - - - - SSW 7 11 4 6 1009.8 1009.7 0.2
26/09:30am 29.0 - - - - NW 4 6 2 3 1009.4 1009.3 0.0
26/09:00am 28.1 - - - - CALM 0 0 0 0 1009.5 1009.4 31.8
26/08:30am 27.6 - - - - CALM 0 4 0 2 1009.6 1009.5 31.8
26/08:00am 26.1 - - - - NNW 2 4 1 2 1009.6 1009.5 31.8
26/07:30am 26.1 - - - - CALM 0 0 0 0 1009.5 1009.4 31.8
26/07:00am 25.3 - - - - NNW 2 4 1 2 1009.1 1009.0 31.8
26/06:30am 25.0 - - - - CALM 0 0 0 0 1008.9 1008.8 31.8
26/06:00am 24.9 - - - - NNW 2 4 1 2 1008.4 1008.3 31.8
26/05:30am 24.9 - - - - NNE 4 6 2 3 1008.1 1008.0 31.8
26/05:00am 25.3 - - - - S 4 6 2 3 1008.1 1008.0 31.8
26/04:30am 25.0 - - - - S 4 7 2 4 1007.8 1007.7 31.8
26/04:00am 24.9 - - - - SW 4 6 2 3 1007.3 1007.2 31.8
26/03:30am 25.0 - - - - CALM 0 0 0 0 1007.2 1007.1 31.8
26/03:00am 25.1 - - - - CALM 0 0 0 0 1007.3 1007.2 31.8
26/02:30am 25.2 - - - - SW 2 4 1 2 1007.5 1007.4 31.8
26/02:00am 25.3 - - - - SW 4 6 2 3 1008.0 1007.9 31.8
26/01:30am 25.3 - - - - SW 2 4 1 2 1008.3 1008.2 31.8
26/01:00am 25.4 - - - - SW 2 4 1 2 1009.0 1008.9 31.8
26/12:30am 25.7 - - - - SW 2 4 1 2 1009.5 1009.4 31.8
26/12:00am 25.9 - - - - SW 6 9 3 5 1009.9 1009.8 31.8
 
Date/Time
CST
Temp
°C
App
Temp
°C
Dew
Point
Rel
Hum
%
Delta-T
°C
Wind Press
QNH
hPa
Press
MSL
hPa
Rain
since 9 am
mm
Dir
 
Spd
km/h
Gust
km/h
Spd
kts
Gust
kts
25/11:30pm 26.2 - - - - SSW 9 13 5 7 1010.2 1010.1 31.8
25/11:00pm 26.1 - - - - SSW 7 13 4 7 1010.1 1010.0 31.8
25/10:30pm 26.1 - - - - SSW 7 13 4 7 1010.0 1009.9 31.8
25/10:00pm 26.2 - - - - SSW 6 9 3 5 1009.8 1009.7 31.8
25/09:30pm 26.3 - - - - SSW 7 11 4 6 1009.6 1009.5 31.8
25/09:00pm 26.0 - - - - SW 4 6 2 3 1009.0 1008.9 31.8
25/08:30pm 26.4 - - - - SW 7 13 4 7 1008.5 1008.4 31.8
25/08:00pm 25.9 - - - - SSW 6 7 3 4 1008.2 1008.1 31.8
25/07:30pm 25.8 - - - - W 4 6 2 3 1007.6 1007.5 31.8
25/07:00pm 25.8 - - - - WNW 9 15 5 8 1006.9 1006.8 31.8
25/06:30pm 24.8 - - - - W 20 41 11 22 1006.8 1006.7 31.6
25/06:00pm 23.5 - - - - WNW 19 30 10 16 1007.1 1007.0 31.6
25/05:30pm 24.0 - - - - WNW 19 28 10 15 1007.1 1007.0 30.2
25/05:00pm 25.2 - - - - W 11 22 6 12 1006.9 1006.8 26.0
25/04:55pm 25.3 - - - - SW 13 24 7 13 1006.9 1006.8 24.2
25/04:30pm 30.4 - - - - WNW 20 35 11 19 1006.2 1006.1 22.4
25/04:00pm 29.0 - - - - NW 15 24 8 13 1006.4 1006.3 22.4
25/03:30pm 28.8 - - - - WNW 17 30 9 16 1007.0 1006.9 22.0
25/03:00pm 30.9 - - - - NW 15 22 8 12 1007.1 1007.0 21.4
25/02:30pm 31.6 - - - - WNW 13 22 7 12 1007.2 1007.1 21.4
25/02:00pm 31.1 - - - - WNW 9 19 5 10 1007.6 1007.5 21.4
25/01:30pm 30.2 - - - - WNW 6 13 3 7 1008.1 1008.0 21.4
25/01:00pm 28.7 - - - - WSW 9 19 5 10 1008.5 1008.4 21.4
25/12:30pm 28.0 - - - - W 15 24 8 13 1009.0 1008.9 21.4
25/12:00pm 27.6 - - - - WNW 17 28 9 15 1009.5 1009.4 21.4
25/11:30am 24.0 - - - - NW 4 11 2 6 1010.1 1010.0 21.0
25/11:00am 26.8 - - - - NW 15 28 8 15 1010.6 1010.5 0.4
25/10:30am 29.5 - - - - WNW 9 15 5 8 1010.7 1010.6 0.0
25/10:00am 28.8 - - - - NW 4 7 2 4 1010.6 1010.5 0.0
25/09:30am 28.4 - - - - NW 7 11 4 6 1010.4 1010.3 0.0
25/09:00am 27.7 - - - - NNW 7 11 4 6 1010.2 1010.1 7.4
25/08:30am 27.1 - - - - NNW 6 9 3 5 1009.8 1009.7 7.4
25/08:00am 26.7 - - - - CALM 0 4 0 2 1009.3 1009.2 7.4
25/07:30am 26.3 - - - - CALM 0 0 0 0 1009.0 1008.9 7.4
25/07:00am 25.2 - - - - CALM 0 2 0 1 1008.9 1008.8 7.4
25/06:30am 25.1 - - - - CALM 0 2 0 1 1009.0 1008.9 7.4
25/06:00am 25.0 - - - - N 4 6 2 3 1009.1 1009.0 7.4
25/05:30am 24.8 - - - - CALM 0 4 0 2 1008.8 1008.7 7.4
25/05:00am 24.9 - - - - N 4 6 2 3 1008.6 1008.5 7.4
25/04:30am 24.7 - - - - CALM 0 0 0 0 1008.6 1008.5 7.2
25/04:00am 24.6 - - - - CALM 0 0 0 0 1008.3 1008.2 7.2
25/03:30am 24.6 - - - - N 4 6 2 3 1008.0 1007.9 7.0
25/03:00am 24.6 - - - - N 4 6 2 3 1007.9 1007.8 7.0
25/02:30am 24.4 - - - - CALM 0 0 0 0 1008.3 1008.2 7.0
25/02:00am 24.4 - - - - CALM 0 0 0 0 1008.6 1008.5 7.0
25/01:30am 24.2 - - - - CALM 0 0 0 0 1008.8 1008.7 7.0
25/01:00am 24.0 - - - - CALM 0 4 0 2 1009.3 1009.2 7.0
25/12:30am 24.0 - - - - NE 6 7 3 4 1009.6 1009.5 7.0
25/12:00am 23.8 - - - - ENE 9 13 5 7 1010.1 1010.0 7.0
 
Date/Time
CST
Temp
°C
App
Temp
°C
Dew
Point
Rel
Hum
%
Delta-T
°C
Wind Press
QNH
hPa
Press
MSL
hPa
Rain
since 9 am
mm
Dir
 
Spd
km/h
Gust
km/h
Spd
kts
Gust
kts
24/11:30pm 24.0 - - - - NE 4 9 2 5 1010.4 1010.3 7.0
24/11:00pm 23.6 - - - - CALM 0 0 0 0 1010.3 1010.2 7.0
24/10:30pm 23.4 - - - - ESE 6 7 3 4 1010.8 1010.7 6.4
24/10:00pm 23.8 - - - - SSE 7 15 4 8 1010.3 1010.2 3.4
24/09:30pm 25.1 - - - - ESE 26 44 14 24 1009.8 1009.7 0.0
24/09:20pm 25.7 - - - - SE 15 41 8 22 1009.4 1009.3 0.0
24/09:00pm 28.0 - - - - W 2 7 1 4 1009.6 1009.5 0.0
24/08:30pm 27.9 - - - - WNW 7 13 4 7 1008.9 1008.8 0.0
24/08:00pm 28.3 - - - - WNW 11 19 6 10 1008.6 1008.5 0.0
24/07:30pm 28.5 - - - - WNW 11 19 6 10 1008.4 1008.3 0.0
24/07:00pm 28.8 - - - - NW 13 19 7 10 1007.6 1007.5 0.0
24/06:30pm 29.0 - - - - NNW 13 20 7 11 1006.8 1006.7 0.0
24/06:00pm 29.6 - - - - WNW 17 24 9 13 1006.0 1005.9 0.0
24/05:30pm 30.6 - - - - NW 15 24 8 13 1005.8 1005.7 0.0
24/05:00pm 30.9 - - - - NW 17 26 9 14 1005.3 1005.2 0.0
24/04:30pm 31.2 - - - - NW 19 30 10 16 1004.8 1004.7 0.0
24/04:00pm 30.1 - - - - NW 19 30 10 16 1005.4 1005.3 0.0
24/03:30pm 31.1 - - - - NW 19 26 10 14 1005.7 1005.6 0.0
24/03:00pm 31.4 - - - - NW 15 22 8 12 1005.7 1005.6 0.0
24/02:30pm 31.0 - - - - NW 15 20 8 11 1005.9 1005.8 0.0
24/02:00pm 31.2 - - - - WNW 11 19 6 10 1006.0 1005.9 0.0
24/01:30pm 30.7 - - - - WNW 11 19 6 10 1006.1 1006.0 0.0
24/01:00pm 30.0 - - - - WNW 13 20 7 11 1006.4 1006.3 0.0
24/12:30pm 30.2 - - - - W 13 19 7 10 1006.6 1006.5 0.0
24/12:00pm 29.9 - - - - WNW 13 20 7 11 1007.2 1007.1 0.0
24/11:30am 30.1 - - - - WNW 11 19 6 10 1007.7 1007.6 0.0
24/11:00am 29.0 - - - - WNW 15 22 8 12 1008.6 1008.5 0.0
24/10:30am 28.5 - - - - NW 17 24 9 13 1008.8 1008.7 0.0
24/10:00am 28.9 - - - - NNW 7 13 4 7 1008.5 1008.4 0.0
24/09:30am 28.7 - - - - WNW 4 9 2 5 1008.4 1008.3 0.0
24/09:00am 27.1 - - - - NW 6 9 3 5 1008.1 1008.0 32.0
24/08:30am 26.3 - - - - WNW 4 6 2 3 1008.2 1008.1 32.0
24/08:00am 25.9 - - - - WNW 4 6 2 3 1008.1 1008.0 32.0
24/07:30am 25.6 - - - - CALM 0 0 0 0 1007.5 1007.4 32.0
24/07:00am 24.6 - - - - CALM 0 0 0 0 1007.1 1007.0 32.0
24/06:30am 24.5 - - - - CALM 0 0 0 0 1006.6 1006.5 32.0
24/06:00am 24.6 - - - - CALM 0 0 0 0 1006.2 1006.1 32.0
24/05:30am 24.7 - - - - CALM 0 0 0 0 1006.0 1005.9 32.0
24/05:00am 24.9 - - - - WNW 4 7 2 4 1005.6 1005.5 32.0
24/04:30am 25.5 - - - - WSW 6 9 3 5 1005.5 1005.4 31.8
24/04:00am 26.0 - - - - NE 2 6 1 3 1005.9 1005.8 31.8
24/03:30am 25.8 - - - - NE 4 6 2 3 1005.9 1005.8 31.8
24/03:00am 25.6 - - - - NNE 2 6 1 3 1005.4 1005.3 31.8
24/02:30am 25.6 - - - - E 2 6 1 3 1006.0 1005.9 31.8
24/02:00am 25.7 - - - - ESE 4 6 2 3 1006.4 1006.3 31.8
24/01:30am 25.7 - - - - CALM 0 4 0 2 1006.7 1006.6 31.6
24/01:00am 25.8 - - - - N 2 6 1 3 1007.0 1006.9 31.6
24/12:30am 25.8 - - - - CALM 0 2 0 1 1007.0 1006.9 31.6
24/12:00am 25.3 - - - - CALM 0 0 0 0 1006.9 1006.8 31.6
 
Date/Time
CST
Temp
°C
App
Temp
°C
Dew
Point
Rel
Hum
%
Delta-T
°C
Wind Press
QNH
hPa
Press
MSL
hPa
Rain
since 9 am
mm
Dir
 
Spd
km/h
Gust
km/h
Spd
kts
Gust
kts
23/11:30pm 25.3 - - - - CALM 0 4 0 2 1006.6 1006.5 31.6
23/11:00pm 25.5 - - - - CALM 0 0 0 0 1006.6 1006.5 31.6
23/10:30pm 25.6 - - - - CALM 0 4 0 2 1006.7 1006.6 31.6
23/10:00pm 25.7 - - - - CALM 0 0 0 0 1006.3 1006.2 31.6
23/09:30pm 25.5 - - - - CALM 0 0 0 0 1006.0 1005.9 31.6
23/09:00pm 25.6 - - - - CALM 0 2 0 1 1006.2 1006.1 31.6
23/08:30pm 25.6 - - - - NNE 4 6 2 3 1006.6 1006.5 31.6
23/08:00pm 25.8 - - - - NE 4 9 2 5 1006.8 1006.7 31.6
23/07:30pm 25.9 - - - - NNE 4 6 2 3 1006.7 1006.6 31.6
23/07:00pm 26.0 - - - - N 6 7 3 4 1006.0 1005.9 31.6
23/06:30pm 26.4 - - - - N 7 9 4 5 1005.6 1005.5 31.6
23/06:00pm 26.6 - - - - WNW 4 7 2 4 1004.8 1004.7 31.6
23/05:30pm 26.8 - - - - WNW 4 6 2 3 1004.4 1004.3 31.6
23/05:00pm 26.5 - - - - CALM 0 2 0 1 1004.0 1003.9 31.6
23/04:30pm 26.2 - - - - WNW 2 6 1 3 1004.0 1003.9 31.6
23/04:00pm 26.0 - - - - WNW 2 4 1 2 1004.1 1004.0 31.6
23/03:30pm 25.8 - - - - SSW 4 7 2 4 1003.4 1003.3 31.6
23/03:00pm 25.3 - - - - SW 6 11 3 6 1003.6 1003.5 31.6
23/02:30pm 25.0 - - - - NW 13 20 7 11 1004.1 1004.0 31.6
23/02:00pm 25.0 - - - - ENE 9 11 5 6 1004.6 1004.5 31.6

Other Formats:

Comma delimited format used in spreadsheet applications
http://www.bom.gov.au/fwo/IDD60801/IDD60801.94110.axf

JavaScript Object Notation format (JSON) in row-major order
http://www.bom.gov.au/fwo/IDD60801/IDD60801.94110.json